Time;durP1;ratioP1;P1;durP2;ratioP2;P2;SDS_P1;SDS_P2;PMS_P1;PMS_P2;Temp;Humidity;BMP_temperature;BMP_pressure;BME280_temperature;BME280_humidity;BME280_pressure;Samples;Min_cycle;Max_cycle;Signal;HPM_P1;HPM_P2
2023/08/09 00:02:03;;;;;;;2.63;2.07;;;14.60;99.90;;;;;;5031746;28;20209;-79
2023/08/09 00:04:31;;;;;;;3.53;1.80;;;14.60;99.90;;;;;;5032010;28;20209;-79
2023/08/09 00:06:59;;;;;;;3.03;1.77;;;14.60;99.90;;;;;;5031489;28;20765;-78
2023/08/09 00:09:29;;;;;;;3.93;2.00;;;14.70;99.90;;;;;;5031671;28;20223;-80
2023/08/09 00:11:57;;;;;;;3.27;1.80;;;14.70;99.90;;;;;;5031787;28;20213;-78
2023/08/09 00:14:25;;;;;;;3.77;1.90;;;14.70;99.90;;;;;;5031866;28;20209;-79
2023/08/09 00:16:54;;;;;;;3.73;2.00;;;14.70;99.90;;;;;;5031371;28;20204;-76
2023/08/09 00:19:22;;;;;;;2.57;1.73;;;14.70;99.90;;;;;;5031538;28;20209;-78
2023/08/09 00:21:50;;;;;;;3.37;1.90;;;14.70;99.90;;;;;;5031138;28;20608;-78
2023/08/09 00:24:18;;;;;;;2.33;1.73;;;14.80;99.90;;;;;;5031707;28;20574;-77
2023/08/09 00:26:48;;;;;;;1.90;1.70;;;14.80;99.90;;;;;;5031615;28;20224;-78
2023/08/09 00:29:16;;;;;;;2.77;1.87;;;14.80;99.90;;;;;;5035835;28;20205;-79
2023/08/09 00:31:44;;;;;;;2.43;1.80;;;14.80;99.90;;;;;;5051421;28;20253;-78
2023/08/09 00:34:12;;;;;;;2.93;1.80;;;14.80;99.90;;;;;;5051115;28;20303;-78
2023/08/09 00:36:40;;;;;;;2.77;1.80;;;14.80;99.90;;;;;;5050080;28;20279;-78
2023/08/09 00:39:08;;;;;;;1.87;1.60;;;14.90;99.90;;;;;;5051203;28;20211;-79
2023/08/09 00:41:37;;;;;;;1.73;1.60;;;14.80;99.90;;;;;;5050933;28;20208;-79
2023/08/09 00:44:06;;;;;;;2.63;1.90;;;14.80;99.90;;;;;;5051244;28;20282;-78
2023/08/09 00:46:37;;;;;;;3.80;1.90;;;14.80;99.90;;;;;;5044970;28;20283;-78
2023/08/09 00:49:06;;;;;;;2.43;1.77;;;14.80;99.90;;;;;;5034910;28;20641;-79
2023/08/09 00:51:34;;;;;;;4.27;1.90;;;14.80;99.90;;;;;;5035460;28;20209;-77
2023/08/09 00:54:02;;;;;;;5.00;2.13;;;14.80;99.90;;;;;;5034669;28;20245;-79
2023/08/09 00:56:30;;;;;;;3.50;1.90;;;14.80;99.90;;;;;;5048305;28;20208;-76
2023/08/09 00:58:58;;;;;;;4.27;2.03;;;14.80;99.90;;;;;;5054783;28;20599;-79
2023/08/09 01:01:28;;;;;;;3.43;1.87;;;14.80;99.90;;;;;;5054435;28;20663;-80
2023/08/09 01:03:56;;;;;;;4.93;2.00;;;14.80;99.90;;;;;;5054413;28;20220;-77
2023/08/09 01:06:31;;;;;;;3.77;2.27;;;14.80;99.90;;;;;;5035744;28;20287;-78
2023/08/09 01:09:11;;;;;;;2.40;1.90;;;14.80;99.90;;;;;;5034546;28;20193;-78
2023/08/09 01:11:53;;;;;;;2.50;1.90;;;14.80;99.90;;;;;;5034385;28;20209;-79
2023/08/09 01:14:22;;;;;;;3.77;2.00;;;14.80;99.90;;;;;;5038240;28;20557;-79
2023/08/09 01:16:54;;;;;;;3.77;1.80;;;14.80;99.90;;;;;;5054447;28;20611;-76
2023/08/09 01:19:32;;;;;;;4.80;2.20;;;14.80;99.90;;;;;;5054114;28;20250;-78
2023/08/09 01:22:05;;;;;;;3.20;1.87;;;14.80;99.90;;;;;;5051221;28;20299;-77
2023/08/09 01:24:35;;;;;;;2.67;1.80;;;14.70;99.90;;;;;;5034056;28;20734;-79
2023/08/09 01:27:04;;;;;;;2.67;1.90;;;14.70;99.90;;;;;;5034301;28;20635;-78
2023/08/09 01:29:32;;;;;;;3.00;1.80;;;14.70;99.90;;;;;;5033977;28;20220;-77
2023/08/09 01:32:00;;;;;;;3.00;2.03;;;14.70;99.90;;;;;;5033718;28;20212;-78
2023/08/09 01:34:28;;;;;;;4.93;1.97;;;14.70;99.90;;;;;;5034244;28;20306;-79
2023/08/09 01:37:03;;;;;;;2.10;1.83;;;14.70;99.90;;;;;;5033957;28;20232;-75
2023/08/09 01:39:35;;;;;;;2.70;1.80;;;14.60;99.90;;;;;;5033487;28;20205;-77
2023/08/09 01:42:04;;;;;;;3.50;1.80;;;14.60;99.90;;;;;;5033624;28;20216;-77
2023/08/09 01:44:35;;;;;;;3.43;1.90;;;14.50;99.90;;;;;;5033879;28;20590;-78
2023/08/09 01:47:03;;;;;;;2.67;1.70;;;14.50;99.90;;;;;;5033733;28;20233;-77
2023/08/09 01:49:32;;;;;;;2.23;1.80;;;14.40;99.90;;;;;;5033516;28;20580;-74
2023/08/09 01:52:00;;;;;;;2.60;1.90;;;14.40;99.90;;;;;;5033524;28;20271;-76
2023/08/09 01:54:28;;;;;;;3.10;2.00;;;14.40;99.90;;;;;;5033546;28;20217;-77
2023/08/09 01:56:58;;;;;;;3.40;2.07;;;14.30;99.90;;;;;;5033513;28;20216;-79
2023/08/09 01:59:27;;;;;;;5.23;1.70;;;14.30;99.90;;;;;;5033608;28;20630;-75
2023/08/09 02:01:55;;;;;;;2.87;1.87;;;14.30;99.90;;;;;;5033366;28;20546;-78
2023/08/09 02:04:24;;;;;;;2.40;2.00;;;14.30;99.90;;;;;;5033634;28;20208;-77
2023/08/09 02:06:52;;;;;;;3.20;2.07;;;14.30;99.90;;;;;;5033480;28;20639;-76
2023/08/09 02:09:21;;;;;;;2.80;1.80;;;14.30;99.90;;;;;;5033306;28;20209;-78
2023/08/09 02:11:49;;;;;;;3.37;1.70;;;14.30;99.90;;;;;;5032771;28;20213;-79
2023/08/09 02:14:19;;;;;;;2.57;2.00;;;14.30;99.90;;;;;;5033277;28;20213;-78
2023/08/09 02:16:47;;;;;;;3.67;2.20;;;14.20;99.90;;;;;;5033702;28;20220;-78
2023/08/09 02:19:15;;;;;;;3.27;2.00;;;14.30;99.90;;;;;;5033347;28;20211;-79
2023/08/09 02:21:43;;;;;;;2.77;2.00;;;14.20;99.90;;;;;;5032793;28;20213;-78
2023/08/09 02:24:12;;;;;;;2.90;2.00;;;14.20;99.90;;;;;;5035811;28;20208;-78
2023/08/09 02:26:40;;;;;;;3.87;2.10;;;14.20;99.90;;;;;;5033274;28;20212;-78
2023/08/09 02:29:08;;;;;;;4.13;1.90;;;14.20;99.90;;;;;;5032907;28;20651;-78
2023/08/09 02:31:38;;;;;;;5.07;2.30;;;14.20;99.90;;;;;;5033263;28;20209;-78
2023/08/09 02:34:06;;;;;;;3.27;2.23;;;14.20;99.90;;;;;;5032819;28;20270;-77
2023/08/09 02:36:34;;;;;;;2.50;1.90;;;14.20;99.90;;;;;;5040706;28;20571;-77
2023/08/09 02:39:03;;;;;;;3.53;2.13;;;14.20;99.90;;;;;;5053624;28;20208;-78
2023/08/09 02:41:31;;;;;;;3.87;1.97;;;14.10;99.90;;;;;;5049615;28;20228;-78
2023/08/09 02:44:00;;;;;;;6.50;2.20;;;14.10;99.90;;;;;;5032950;28;20662;-78
2023/08/09 02:46:28;;;;;;;2.40;2.00;;;14.00;99.90;;;;;;5032883;28;20286;-78
2023/08/09 02:48:57;;;;;;;3.30;2.30;;;14.00;99.90;;;;;;5032224;28;20225;-78
2023/08/09 02:51:25;;;;;;;4.23;2.10;;;13.90;99.90;;;;;;5052086;28;20557;-78
2023/08/09 02:54:01;;;;;;;4.90;2.30;;;13.90;99.90;;;;;;5052175;28;20262;-79
2023/08/09 02:56:30;;;;;;;3.50;2.20;;;13.90;99.90;;;;;;5052208;28;20216;-79
2023/08/09 02:58:58;;;;;;;4.73;2.13;;;13.80;99.90;;;;;;5046103;28;20205;-77
2023/08/09 03:01:29;;;;;;;3.23;2.13;;;13.80;99.90;;;;;;5032350;28;20212;-78
2023/08/09 03:03:59;;;;;;;3.30;2.00;;;13.70;99.90;;;;;;5032572;28;20203;-79
2023/08/09 03:06:27;;;;;;;2.20;2.00;;;13.70;99.90;;;;;;5031634;28;20219;-78
2023/08/09 03:08:55;;;;;;;4.50;2.33;;;13.70;99.90;;;;;;5031608;28;20217;-79
2023/08/09 03:11:25;;;;;;;3.17;2.20;;;13.60;99.90;;;;;;5032958;28;20256;-79
2023/08/09 03:13:53;;;;;;;3.97;2.20;;;13.60;99.90;;;;;;5031875;28;20244;-78
2023/08/09 03:16:21;;;;;;;3.30;2.00;;;13.60;99.90;;;;;;5038943;28;20281;-78
2023/08/09 03:18:49;;;;;;;3.37;1.87;;;13.50;99.90;;;;;;5051840;28;20253;-79
2023/08/09 03:21:19;;;;;;;4.50;2.57;;;13.60;99.90;;;;;;5051684;28;20219;-79
2023/08/09 03:23:47;;;;;;;3.23;2.10;;;13.60;99.90;;;;;;5051536;28;20244;-78
2023/08/09 03:26:15;;;;;;;2.57;2.30;;;13.50;99.90;;;;;;5033858;28;20254;-77
2023/08/09 03:28:43;;;;;;;3.80;2.13;;;13.40;99.90;;;;;;5032096;28;20232;-79
2023/08/09 03:31:11;;;;;;;4.90;2.33;;;13.40;99.90;;;;;;5032077;28;20639;-77
2023/08/09 03:33:39;;;;;;;5.63;2.60;;;13.40;99.90;;;;;;5031905;28;20217;-76
2023/08/09 03:36:08;;;;;;;3.53;2.50;;;13.40;99.90;;;;;;5047148;28;20281;-78
2023/08/09 03:38:37;;;;;;;3.37;2.30;;;13.30;99.90;;;;;;5051882;28;20662;-77
2023/08/09 03:41:05;;;;;;;3.43;2.30;;;13.30;99.90;;;;;;5051674;28;20666;-77
2023/08/09 03:43:35;;;;;;;2.67;2.40;;;13.30;99.90;;;;;;5033116;28;20212;-77
2023/08/09 03:46:04;;;;;;;3.50;2.50;;;13.30;99.90;;;;;;5032400;28;20258;-76
2023/08/09 03:48:32;;;;;;;4.27;2.30;;;13.30;99.90;;;;;;5051801;28;20606;-76
2023/08/09 03:51:01;;;;;;;2.73;2.17;;;13.30;99.90;;;;;;5044474;28;20217;-77
2023/08/09 03:53:29;;;;;;;2.87;2.40;;;13.30;99.90;;;;;;5031352;28;20253;-79
2023/08/09 03:55:58;;;;;;;3.37;2.50;;;13.20;99.90;;;;;;5031939;28;20296;-78
2023/08/09 03:58:27;;;;;;;4.63;2.37;;;13.20;99.90;;;;;;5031905;28;20597;-78
2023/08/09 04:00:55;;;;;;;3.33;2.27;;;13.20;99.90;;;;;;5031553;28;20213;-79
2023/08/09 04:03:24;;;;;;;5.87;2.80;;;13.20;99.90;;;;;;5031419;28;20212;-78
2023/08/09 04:05:52;;;;;;;3.40;2.20;;;13.20;99.90;;;;;;5031530;28;20213;-79
2023/08/09 04:08:21;;;;;;;4.40;2.40;;;13.20;99.90;;;;;;5031113;28;20587;-78
2023/08/09 04:10:50;;;;;;;4.60;2.30;;;13.20;99.90;;;;;;5031739;28;20274;-79
2023/08/09 04:13:20;;;;;;;4.00;2.57;;;13.20;99.90;;;;;;5031298;28;20216;-76
2023/08/09 04:15:48;;;;;;;4.67;2.60;;;13.20;99.90;;;;;;5031649;28;20300;-78
2023/08/09 04:18:16;;;;;;;3.87;2.40;;;13.20;99.90;;;;;;5031697;28;20260;-79
2023/08/09 04:20:46;;;;;;;5.03;2.40;;;13.20;99.90;;;;;;5035408;28;20284;-78
2023/08/09 04:23:14;;;;;;;4.03;2.57;;;13.20;99.90;;;;;;5037304;28;20587;-79
2023/08/09 04:25:42;;;;;;;4.83;2.60;;;13.20;99.90;;;;;;5037846;28;20235;-76
2023/08/09 04:28:10;;;;;;;2.50;2.27;;;13.20;99.90;;;;;;5040022;28;20213;-76
2023/08/09 04:30:43;;;;;;;2.40;2.20;;;13.20;99.90;;;;;;5037788;28;20213;-75
2023/08/09 04:33:12;;;;;;;5.27;2.60;;;13.20;99.90;;;;;;5049374;28;20274;-78
2023/08/09 04:35:42;;;;;;;4.87;2.57;;;13.20;99.90;;;;;;5036800;28;20272;-78
2023/08/09 04:38:10;;;;;;;5.20;2.53;;;13.20;99.90;;;;;;5034955;28;20245;-78
2023/08/09 04:40:38;;;;;;;5.60;2.80;;;13.20;99.90;;;;;;5034687;28;20215;-78
2023/08/09 04:43:06;;;;;;;3.77;2.60;;;13.20;99.90;;;;;;5034372;28;20271;-78
2023/08/09 04:45:35;;;;;;;4.60;2.80;;;13.10;99.90;;;;;;5034664;28;20680;-77
2023/08/09 04:48:06;;;;;;;3.53;2.53;;;13.10;99.90;;;;;;5034913;28;20204;-77
2023/08/09 04:50:34;;;;;;;3.57;2.20;;;13.10;99.90;;;;;;5035633;28;20229;-77
2023/08/09 04:53:02;;;;;;;4.43;2.40;;;13.10;99.90;;;;;;5034428;28;20232;-77
2023/08/09 04:55:30;;;;;;;6.10;2.70;;;13.10;99.90;;;;;;5034404;28;20212;-78
2023/08/09 04:57:58;;;;;;;5.27;2.70;;;13.10;99.90;;;;;;5034666;28;20568;-78
2023/08/09 05:00:27;;;;;;;3.63;2.60;;;13.10;99.90;;;;;;5045015;28;20691;-78
2023/08/09 05:02:55;;;;;;;3.13;2.17;;;13.10;99.90;;;;;;5054538;28;20208;-78
2023/08/09 05:05:24;;;;;;;4.80;2.67;;;13.20;99.90;;;;;;5054695;28;20208;-78
2023/08/09 05:07:52;;;;;;;3.43;2.80;;;13.20;99.90;;;;;;5054373;28;20219;-78
2023/08/09 05:10:20;;;;;;;3.47;2.37;;;13.20;99.90;;;;;;5041148;28;20260;-77
2023/08/09 05:12:49;;;;;;;4.43;2.50;;;13.20;99.90;;;;;;5034104;28;20295;-74
2023/08/09 05:15:17;;;;;;;3.87;2.60;;;13.20;99.90;;;;;;5034438;28;20444;-78
2023/08/09 05:17:45;;;;;;;4.43;3.00;;;13.20;99.90;;;;;;5034668;28;20621;-77
2023/08/09 05:20:13;;;;;;;4.47;2.50;;;13.20;99.90;;;;;;5034256;28;20300;-78
2023/08/09 05:22:42;;;;;;;4.90;2.60;;;13.20;99.90;;;;;;5033995;28;20244;-77
2023/08/09 05:25:11;;;;;;;3.17;2.40;;;13.20;99.90;;;;;;5034428;28;20217;-77
2023/08/09 05:27:39;;;;;;;4.57;2.60;;;13.30;99.90;;;;;;5033975;28;20605;-78
2023/08/09 05:30:08;;;;;;;5.03;2.80;;;13.30;99.90;;;;;;5033948;28;20229;-77
2023/08/09 05:32:36;;;;;;;4.77;2.80;;;13.30;99.90;;;;;;5043810;28;20209;-77
2023/08/09 05:35:05;;;;;;;4.13;2.60;;;13.30;99.90;;;;;;5053863;28;20214;-78
2023/08/09 05:37:34;;;;;;;4.80;2.70;;;13.30;99.90;;;;;;5034000;28;20213;-78
2023/08/09 05:40:04;;;;;;;2.73;2.53;;;13.30;99.90;;;;;;5033908;28;20631;-78
2023/08/09 05:42:32;;;;;;;2.73;2.30;;;13.30;99.90;;;;;;5033547;28;20209;-78
2023/08/09 05:45:00;;;;;;;5.30;2.53;;;13.40;99.90;;;;;;5033960;28;20252;-77
2023/08/09 05:47:28;;;;;;;3.17;2.47;;;13.40;99.90;;;;;;5033625;28;20784;-78
2023/08/09 05:49:56;;;;;;;2.70;2.20;;;13.40;99.90;;;;;;5034026;28;20224;-78
2023/08/09 05:52:24;;;;;;;3.93;2.37;;;13.50;99.90;;;;;;5033295;28;20216;-78
2023/08/09 05:54:53;;;;;;;3.87;2.57;;;13.50;99.90;;;;;;5034005;28;20213;-79
2023/08/09 05:57:22;;;;;;;3.67;2.83;;;13.50;99.90;;;;;;5033972;28;20259;-79
2023/08/09 05:59:51;;;;;;;3.57;2.00;;;13.50;99.90;;;;;;5033827;28;20201;-78
2023/08/09 06:02:19;;;;;;;2.93;2.33;;;13.50;99.90;;;;;;5033455;28;20221;-78
2023/08/09 06:04:47;;;;;;;3.53;2.30;;;13.50;99.90;;;;;;5033707;28;20278;-79
2023/08/09 06:07:15;;;;;;;5.83;2.53;;;13.60;99.90;;;;;;5033512;28;20221;-78
2023/08/09 06:09:43;;;;;;;3.37;2.47;;;13.60;99.90;;;;;;5033152;28;20655;-78
2023/08/09 06:12:11;;;;;;;5.30;2.53;;;13.60;99.90;;;;;;5032951;28;20209;-76
2023/08/09 06:14:41;;;;;;;5.07;2.37;;;13.60;99.90;;;;;;5033534;28;20616;-76
2023/08/09 06:17:09;;;;;;;5.13;2.27;;;13.60;99.90;;;;;;5033193;28;20245;-78
2023/08/09 06:19:37;;;;;;;5.27;2.60;;;13.70;99.90;;;;;;5033209;28;20566;-78
2023/08/09 06:22:06;;;;;;;4.73;2.30;;;13.70;99.90;;;;;;5033070;28;20213;-79
2023/08/09 06:24:34;;;;;;;5.07;2.60;;;13.70;99.90;;;;;;5033082;28;20262;-77
2023/08/09 06:27:02;;;;;;;4.60;2.50;;;13.80;99.90;;;;;;5033152;28;20282;-77
2023/08/09 06:29:32;;;;;;;4.10;2.33;;;13.80;99.90;;;;;;5032939;28;20255;-78
2023/08/09 06:32:02;;;;;;;5.07;2.50;;;13.90;99.90;;;;;;5048720;28;20212;-78
2023/08/09 06:34:30;;;;;;;4.83;2.20;;;14.00;99.90;;;;;;5053243;28;20211;-79
2023/08/09 06:36:58;;;;;;;4.23;2.67;;;14.00;99.90;;;;;;5052998;28;20278;-79
2023/08/09 06:39:26;;;;;;;4.07;2.33;;;14.00;99.90;;;;;;5052857;28;20208;-76
2023/08/09 06:41:54;;;;;;;3.90;2.40;;;13.90;99.90;;;;;;5051697;28;20208;-78
2023/08/09 06:44:22;;;;;;;5.43;2.70;;;13.90;99.90;;;;;;5052713;28;20880;-78
2023/08/09 06:46:51;;;;;;;3.60;2.60;;;13.90;99.90;;;;;;5052500;28;20614;-78
2023/08/09 06:49:22;;;;;;;2.97;2.40;;;13.90;99.90;;;;;;5052745;28;20208;-78
2023/08/09 06:51:51;;;;;;;6.73;2.50;;;13.80;99.90;;;;;;5052620;28;20602;-77
2023/08/09 06:54:19;;;;;;;4.43;2.80;;;13.80;99.90;;;;;;5052494;28;20704;-79
2023/08/09 06:56:50;;;;;;;3.30;2.53;;;13.80;99.90;;;;;;5053172;28;20193;-78
2023/08/09 06:59:18;;;;;;;5.93;2.67;;;13.90;99.90;;;;;;5052910;28;20203;-76
2023/08/09 07:01:48;;;;;;;4.07;2.50;;;13.90;99.90;;;;;;5052770;28;20208;-77
2023/08/09 07:04:17;;;;;;;4.97;2.50;;;13.90;99.90;;;;;;5038088;28;20228;-77
2023/08/09 07:06:47;;;;;;;3.70;2.50;;;13.90;99.90;;;;;;5032791;28;20271;-77
2023/08/09 07:09:18;;;;;;;4.23;2.83;;;14.00;99.90;;;;;;5032528;28;20262;-76
2023/08/09 07:11:47;;;;;;;6.33;2.97;;;14.00;99.90;;;;;;5032523;28;20228;-77
2023/08/09 07:14:15;;;;;;;4.20;2.60;;;14.00;99.90;;;;;;5032725;28;20216;-78
2023/08/09 07:16:43;;;;;;;6.63;2.63;;;14.10;99.90;;;;;;5032718;28;20752;-76
2023/08/09 07:19:11;;;;;;;4.07;2.50;;;14.10;99.90;;;;;;5032124;28;20584;-76
2023/08/09 07:21:39;;;;;;;4.30;2.80;;;14.10;99.90;;;;;;5046727;28;20208;-78
2023/08/09 07:24:10;;;;;;;6.80;2.90;;;14.20;99.90;;;;;;5052066;28;20208;-79
2023/08/09 07:26:38;;;;;;;6.80;2.53;;;14.20;99.90;;;;;;5052301;28;20232;-77
2023/08/09 07:29:06;;;;;;;4.67;2.73;;;14.20;99.90;;;;;;5047712;28;20204;-77
2023/08/09 07:31:35;;;;;;;4.80;2.80;;;14.30;99.90;;;;;;5051983;28;20220;-78
2023/08/09 07:34:04;;;;;;;4.10;2.80;;;14.40;99.90;;;;;;5051658;28;20222;-77
2023/08/09 07:36:32;;;;;;;6.57;3.20;;;14.40;99.90;;;;;;5044445;28;20241;-78
2023/08/09 07:39:01;;;;;;;6.80;3.00;;;14.50;99.90;;;;;;5031818;28;20580;-80
2023/08/09 07:41:33;;;;;;;8.13;2.87;;;14.60;99.90;;;;;;5032265;28;20196;-75
2023/08/09 07:44:01;;;;;;;5.60;2.93;;;14.60;99.90;;;;;;5031848;28;20217;-80
2023/08/09 07:46:30;;;;;;;5.07;3.30;;;14.70;99.90;;;;;;5041664;28;20232;-76
2023/08/09 07:49:02;;;;;;;4.53;2.80;;;14.70;99.90;;;;;;5051980;28;20212;-76
2023/08/09 07:51:31;;;;;;;4.30;2.80;;;14.80;99.90;;;;;;5052159;28;20278;-77
2023/08/09 07:53:59;;;;;;;5.40;3.20;;;14.80;99.90;;;;;;5053559;28;20219;-78
2023/08/09 07:56:28;;;;;;;6.47;2.93;;;14.80;99.90;;;;;;5036256;28;20213;-76
2023/08/09 07:58:57;;;;;;;5.53;2.97;;;14.80;99.90;;;;;;5036028;28;20258;-77
2023/08/09 08:01:25;;;;;;;4.33;2.60;;;14.80;99.90;;;;;;5035768;28;20686;-78
2023/08/09 08:03:54;;;;;;;4.93;2.90;;;14.90;99.90;;;;;;5035696;28;20247;-78
2023/08/09 08:06:22;;;;;;;4.50;2.80;;;14.90;99.90;;;;;;5036269;28;20606;-78
2023/08/09 08:08:51;;;;;;;7.10;3.00;;;14.90;99.90;;;;;;5036596;28;20208;-78
2023/08/09 08:11:19;;;;;;;4.73;2.70;;;14.90;99.90;;;;;;5035657;28;20224;-78
2023/08/09 08:13:47;;;;;;;3.43;2.40;;;14.90;99.90;;;;;;5035559;28;20573;-79
2023/08/09 08:16:17;;;;;;;3.90;2.50;;;14.90;99.90;;;;;;5035879;28;20208;-77
2023/08/09 08:18:45;;;;;;;4.50;2.60;;;14.90;99.90;;;;;;5035620;28;20209;-77
2023/08/09 08:21:13;;;;;;;4.57;2.50;;;15.00;99.90;;;;;;5035676;28;20212;-77
2023/08/09 08:23:41;;;;;;;3.57;2.00;;;15.00;99.90;;;;;;5035286;28;20209;-76
2023/08/09 08:26:10;;;;;;;5.20;2.50;;;15.00;99.90;;;;;;5036854;28;20205;-77
2023/08/09 08:28:38;;;;;;;3.50;2.30;;;15.00;99.90;;;;;;5047743;28;20212;-76
2023/08/09 08:31:07;;;;;;;4.40;2.33;;;15.10;99.90;;;;;;5056176;28;20223;-76
2023/08/09 08:33:37;;;;;;;5.77;2.30;;;15.20;99.90;;;;;;5056131;28;20222;-76
2023/08/09 08:36:06;;;;;;;3.53;2.20;;;15.20;99.90;;;;;;5052617;28;20266;-76
2023/08/09 08:38:54;;;;;;;3.87;2.40;;;15.20;99.90;;;;;;5035426;28;20209;-76
2023/08/09 08:41:23;;;;;;;3.07;2.00;;;15.30;99.90;;;;;;5035650;28;20259;-76
2023/08/09 08:43:52;;;;;;;4.33;2.40;;;15.30;99.90;;;;;;5035203;28;20216;-76
2023/08/09 08:46:23;;;;;;;5.10;2.23;;;15.30;99.90;;;;;;5035380;28;20282;-76
2023/08/09 08:48:57;;;;;;;2.93;2.30;;;15.30;99.90;;;;;;5035276;28;20292;-76
2023/08/09 08:51:27;;;;;;;5.03;2.40;;;15.30;99.90;;;;;;5034994;28;20286;-77
2023/08/09 08:53:55;;;;;;;2.90;2.13;;;15.40;99.90;;;;;;5034627;28;20283;-77
2023/08/09 08:56:24;;;;;;;2.83;2.10;;;15.40;99.90;;;;;;5035463;28;20213;-75
2023/08/09 08:58:52;;;;;;;3.57;2.30;;;15.40;99.90;;;;;;5034952;28;20244;-78
2023/08/09 09:01:21;;;;;;;3.73;2.20;;;15.40;99.90;;;;;;5035087;28;20296;-78
2023/08/09 09:03:51;;;;;;;5.20;2.20;;;15.50;99.90;;;;;;5034473;28;20209;-77
2023/08/09 09:06:21;;;;;;;4.30;2.20;;;15.60;99.90;;;;;;5033729;28;20216;-77
2023/08/09 09:08:55;;;;;;;3.17;2.10;;;15.70;99.90;;;;;;5034915;28;20584;-77
2023/08/09 09:11:23;;;;;;;2.77;2.00;;;15.80;99.90;;;;;;5034548;28;20678;-77
2023/08/09 09:13:52;;;;;;;3.23;1.90;;;15.80;99.90;;;;;;5034527;28;20217;-75
2023/08/09 09:16:22;;;;;;;3.03;2.03;;;15.90;99.90;;;;;;5034602;28;20244;-77
2023/08/09 09:18:50;;;;;;;4.33;2.60;;;16.00;99.90;;;;;;5034508;28;20618;-76
2023/08/09 09:21:20;;;;;;;4.17;2.30;;;16.00;99.90;;;;;;5033858;28;20216;-79
2023/08/09 09:23:48;;;;;;;3.00;2.20;;;16.10;99.90;;;;;;5034281;28;20247;-77
2023/08/09 09:26:17;;;;;;;4.00;2.20;;;16.20;99.90;;;;;;5037954;28;20208;-76
2023/08/09 09:28:47;;;;;;;4.50;2.40;;;16.20;99.90;;;;;;5054038;28;20590;-79
2023/08/09 09:31:18;;;;;;;3.80;2.10;;;16.20;99.90;;;;;;5054310;28;20323;-77
2023/08/09 09:33:49;;;;;;;4.73;2.40;;;16.20;99.90;;;;;;5053941;28;20208;-78
2023/08/09 09:36:17;;;;;;;3.37;2.60;;;16.10;99.90;;;;;;5054365;28;20562;-77
2023/08/09 09:38:53;;;;;;;5.43;2.50;;;16.00;99.90;;;;;;5043396;28;20239;-79
2023/08/09 09:41:21;;;;;;;2.83;2.27;;;16.10;99.90;;;;;;5034809;28;20224;-78
2023/08/09 09:43:51;;;;;;;3.33;2.27;;;16.10;99.90;;;;;;5033680;28;20211;-77
2023/08/09 09:46:20;;;;;;;3.00;2.20;;;16.10;99.90;;;;;;5033950;28;20707;-79
2023/08/09 09:49:00;;;;;;;3.87;2.40;;;16.10;99.90;;;;;;5034922;28;20267;-77
2023/08/09 09:51:29;;;;;;;3.30;2.40;;;16.10;99.90;;;;;;5034202;28;20212;-76
2023/08/09 09:53:59;;;;;;;5.07;2.10;;;16.10;99.90;;;;;;5033915;28;20216;-78
2023/08/09 09:56:27;;;;;;;4.30;2.30;;;16.10;99.90;;;;;;5033670;28;20632;-77
2023/08/09 09:58:55;;;;;;;3.63;2.00;;;16.00;99.90;;;;;;5033865;28;20213;-78
2023/08/09 10:01:25;;;;;;;4.40;2.30;;;15.80;99.90;;;;;;5033494;28;20217;-79
2023/08/09 10:04:06;;;;;;;4.13;2.40;;;15.70;99.90;;;;;;5033348;28;20698;-77
2023/08/09 10:06:36;;;;;;;4.03;2.53;;;15.60;99.90;;;;;;5033620;28;20312;-77
2023/08/09 10:09:09;;;;;;;5.43;2.47;;;15.50;99.90;;;;;;5033724;28;20213;-78
2023/08/09 10:11:39;;;;;;;3.10;2.47;;;15.50;99.90;;;;;;5033798;28;20583;-77
2023/08/09 10:14:10;;;;;;;3.87;2.40;;;15.40;99.90;;;;;;5033365;28;20209;-79
2023/08/09 10:16:39;;;;;;;4.47;2.60;;;15.30;99.90;;;;;;5033247;28;20307;-77
2023/08/09 10:19:10;;;;;;;2.93;2.47;;;15.30;99.90;;;;;;5033154;28;20208;-78
2023/08/09 10:21:41;;;;;;;3.63;2.57;;;15.30;99.90;;;;;;5033608;28;20193;-76
2023/08/09 10:24:12;;;;;;;5.67;2.70;;;15.30;99.90;;;;;;5032905;28;20219;-79
2023/08/09 10:26:44;;;;;;;5.33;2.53;;;15.20;99.90;;;;;;5051456;28;20246;-79
2023/08/09 10:29:14;;;;;;;4.00;2.40;;;15.20;99.90;;;;;;5053004;28;20212;-77
2023/08/09 10:31:49;;;;;;;3.83;2.67;;;15.10;99.90;;;;;;5052858;28;20220;-77
2023/08/09 10:34:19;;;;;;;3.10;2.53;;;15.00;99.90;;;;;;5034128;28;20212;-77
2023/08/09 10:36:54;;;;;;;5.90;2.57;;;15.00;99.90;;;;;;5032822;28;20274;-78
2023/08/09 10:39:24;;;;;;;4.20;2.73;;;15.10;99.90;;;;;;5033158;28;20263;-78
2023/08/09 10:42:00;;;;;;;5.90;2.80;;;15.20;99.90;;;;;;5032496;28;20255;-79
2023/08/09 10:44:34;;;;;;;4.77;2.70;;;15.50;99.90;;;;;;5032901;28;20208;-78
2023/08/09 10:47:03;;;;;;;3.97;2.70;;;15.70;99.90;;;;;;5033155;28;20225;-79
2023/08/09 10:49:46;;;;;;;4.17;2.80;;;16.10;99.90;;;;;;5032222;28;20204;-74
2023/08/09 10:52:14;;;;;;;2.53;2.20;;;16.70;99.90;;;;;;5032430;28;20217;-77
2023/08/09 10:54:51;;;;;;;3.47;2.20;;;17.30;99.90;;;;;;5032959;28;20193;-77
2023/08/09 10:57:19;;;;;;;2.67;2.17;;;17.80;99.90;;;;;;5032954;28;20231;-75
2023/08/09 10:59:58;;;;;;;6.63;2.30;;;18.30;99.90;;;;;;5032805;28;20209;-75
2023/08/09 11:02:26;;;;;;;3.00;2.17;;;18.40;99.90;;;;;;5033623;28;20181;-76
2023/08/09 11:04:54;;;;;;;4.70;2.23;;;18.40;99.90;;;;;;5033079;28;20215;-77
2023/08/09 11:07:23;;;;;;;3.40;2.30;;;18.50;99.90;;;;;;5037352;28;20242;-75
2023/08/09 11:09:52;;;;;;;2.53;2.20;;;18.60;99.90;;;;;;5052432;28;20216;-76
2023/08/09 11:12:24;;;;;;;4.13;2.20;;;18.70;99.90;;;;;;5052115;28;20228;-79
2023/08/09 11:14:54;;;;;;;3.97;2.07;;;18.40;99.90;;;;;;5052567;28;20500;-77
2023/08/09 11:17:23;;;;;;;3.00;2.13;;;18.30;99.90;;;;;;5044464;28;20600;-77
2023/08/09 11:19:51;;;;;;;3.53;2.00;;;18.20;99.90;;;;;;5032363;28;20208;-78
2023/08/09 11:22:20;;;;;;;3.43;2.10;;;18.30;99.90;;;;;;5032137;28;20215;-78
2023/08/09 11:24:49;;;;;;;3.30;2.17;;;18.60;99.90;;;;;;5044708;28;20223;-76
2023/08/09 11:27:18;;;;;;;2.70;2.10;;;18.90;99.90;;;;;;5033324;28;20619;-78
2023/08/09 11:29:47;;;;;;;2.87;2.03;;;19.10;99.90;;;;;;5032249;28;20250;-77
2023/08/09 11:32:15;;;;;;;3.97;2.00;;;19.20;99.90;;;;;;5033082;28;20212;-77
2023/08/09 11:34:43;;;;;;;3.17;2.10;;;19.40;99.90;;;;;;5033861;28;20286;-77
2023/08/09 11:37:12;;;;;;;4.83;2.30;;;19.40;99.90;;;;;;5034111;28;20618;-75
2023/08/09 11:39:40;;;;;;;3.43;2.07;;;19.40;99.90;;;;;;5032606;28;20547;-76
2023/08/09 11:42:09;;;;;;;2.67;2.00;;;19.00;99.90;;;;;;5031972;28;20590;-77
2023/08/09 11:44:39;;;;;;;3.23;1.90;;;19.00;99.90;;;;;;5032404;28;20213;-77
2023/08/09 11:47:08;;;;;;;4.07;2.10;;;19.00;99.90;;;;;;5032006;28;20706;-77
2023/08/09 11:49:36;;;;;;;3.97;1.90;;;19.00;99.90;;;;;;5032153;28;20217;-76
2023/08/09 11:52:05;;;;;;;2.67;2.00;;;19.20;99.90;;;;;;5031893;28;20212;-76
2023/08/09 11:54:33;;;;;;;1.90;1.73;;;19.60;99.90;;;;;;5032071;28;20647;-75
2023/08/09 11:57:06;;;;;;;2.80;2.10;;;19.80;99.90;;;;;;5032027;28;20583;-77
2023/08/09 11:59:38;;;;;;;4.17;2.00;;;19.90;99.90;;;;;;5031826;28;20217;-78
2023/08/09 12:02:08;;;;;;;2.83;2.03;;;20.10;99.90;;;;;;5031794;28;20209;-78
2023/08/09 12:04:39;;;;;;;4.33;1.77;;;20.40;99.90;;;;;;5031965;28;20227;-77
2023/08/09 12:07:10;;;;;;;2.67;1.90;;;20.40;99.90;;;;;;5031592;28;20221;-77
2023/08/09 12:09:44;;;;;;;2.60;2.10;;;20.40;99.90;;;;;;5031852;28;20255;-77
2023/08/09 12:12:13;;;;;;;2.37;1.70;;;20.20;99.90;;;;;;5031399;28;20211;-77
2023/08/09 12:14:43;;;;;;;3.13;1.80;;;20.10;99.90;;;;;;5031651;28;20233;-77
2023/08/09 12:17:21;;;;;;;2.70;1.90;;;19.70;99.90;;;;;;5031569;28;20667;-77
2023/08/09 12:19:51;;;;;;;3.67;1.80;;;19.40;99.90;;;;;;5031714;28;20217;-77
2023/08/09 12:22:19;;;;;;;2.10;1.77;;;19.20;99.90;;;;;;5036883;28;20295;-77
2023/08/09 12:24:48;;;;;;;4.70;2.20;;;19.10;99.90;;;;;;5051940;28;20204;-78
2023/08/09 12:27:17;;;;;;;2.23;1.80;;;19.30;99.90;;;;;;5051893;28;20212;-79
2023/08/09 12:29:45;;;;;;;3.10;2.10;;;19.70;99.90;;;;;;5031568;28;20223;-79
2023/08/09 12:32:14;;;;;;;2.27;1.90;;;19.80;99.90;;;;;;5031294;28;20205;-78
2023/08/09 12:34:44;;;;;;;5.07;2.00;;;19.90;99.90;;;;;;5031667;28;20228;-78
2023/08/09 12:37:12;;;;;;;2.47;1.93;;;20.00;99.90;;;;;;5032298;28;20216;-79
2023/08/09 12:39:40;;;;;;;2.73;1.93;;;20.10;99.90;;;;;;5031262;28;20224;-77
2023/08/09 12:42:08;;;;;;;4.03;2.17;;;20.20;99.90;;;;;;5034576;28;20224;-76
2023/08/09 12:44:36;;;;;;;4.33;1.90;;;20.30;99.90;;;;;;5035248;28;20208;-78
2023/08/09 12:47:06;;;;;;;3.47;1.80;;;20.30;99.90;;;;;;5035395;28;20235;-77
2023/08/09 12:49:37;;;;;;;2.03;1.67;;;20.30;99.90;;;;;;5035407;28;20254;-76
2023/08/09 12:52:06;;;;;;;3.90;1.90;;;20.10;99.90;;;;;;5034878;28;20212;-78
2023/08/09 12:54:34;;;;;;;6.20;2.00;;;20.30;99.90;;;;;;5034832;28;20221;-78
2023/08/09 12:57:03;;;;;;;2.40;1.90;;;20.50;99.90;;;;;;5034684;28;20205;-79
2023/08/09 12:59:32;;;;;;;2.27;1.80;;;20.60;99.90;;;;;;5034920;28;20262;-79